PWSweather.com
Personal Weather Stations
Station Observations
KWIATHEL1
Marinette County, Athelstane, WI 54104

Marinette CountyAthelstane, WI 54104

Lat: 45.4, Lon: -88.12

Elevation: 960

Station Type: Acurite 5in1 Pro

http://weather.athelstanewi.com

Latest ConditionsUpdated 7:05:01 PM CDT Tuesday, Jun 28, 2016
Currently Today's Max Today's Min Today's Average
Temperature 74.2°F23.4°C 78.2°F25.7°C 48.7°F9.3°C 64.2°F17.9°C
Dew Point 49.7°F9.8°C 51.8°F11.0°C 46.1°F7.8°C 48.9°F9.4°C
Winds Calm Calm 43.7 mph NW70.3 kmh NW - 2.4 mph 3.9 kmh
Wind Gusts -- 8.1 mph13.0 kmh - -
Humidity 42% 91% 36% 62%
Pressure 30.10 in1019.3 mb 30.20 in1022.7 mb 30.10 in1019.3 mb -
Hour Temp Dew Point Humidity Winds Wind Gusts Pressure Precip Precip Rate Daily Precip Total
07:05 PM 74.2°F23.4°C 49.7°F9.8°C 42% Calm Calm -- 30.10 in1019.3 mb - 0.00 in0.0 mm 0.00 in0.0 mm
07:00 PM 74.5°F23.6°C 49.9°F9.9°C 42% Calm Calm -- 30.10 in1019.3 mb - 0.00 in0.0 mm 0.00 in0.0 mm
06:55 PM 74.8°F23.8°C 49.5°F9.7°C 41% Calm Calm -- 30.10 in1019.3 mb - 0.00 in0.0 mm 0.00 in0.0 mm
06:50 PM 74.8°F23.8°C 49.6°F9.8°C 41% Calm Calm 1.2 mph1.9 kmh 30.10 in1019.3 mb - 0.00 in0.0 mm 0.00 in0.0 mm
06:45 PM 74.8°F23.8°C 48.9°F9.4°C 40% Calm Calm -- 30.11 in1019.6 mb - 0.00 in0.0 mm 0.00 in0.0 mm
06:40 PM 75.4°F24.1°C 48.0°F8.9°C 38% 2.3 mph E3.7 kmh E 2.3 mph3.7 kmh 30.11 in1019.6 mb - 0.00 in0.0 mm 0.00 in0.0 mm
06:35 PM 75.6°F24.2°C 48.9°F9.4°C 39% 2.3 mph W3.7 kmh W 2.3 mph3.7 kmh 30.11 in1019.6 mb - 0.00 in0.0 mm 0.00 in0.0 mm
06:30 PM 75.4°F24.1°C 49.4°F9.7°C 40% 1.2 mph E1.9 kmh E 1.2 mph1.9 kmh 30.11 in1019.6 mb - 0.00 in0.0 mm 0.00 in0.0 mm
06:25 PM 75.6°F24.2°C 47.5°F8.6°C 37% 2.3 mph W3.7 kmh W 2.3 mph3.7 kmh 30.11 in1019.6 mb - 0.00 in0.0 mm 0.00 in0.0 mm
06:20 PM 76.3°F24.6°C 48.9°F9.4°C 38% 2.3 mph WSW3.7 kmh WSW 3.5 mph5.6 kmh 30.11 in1019.6 mb - 0.00 in0.0 mm 0.00 in0.0 mm
06:15 PM 76.1°F24.5°C 48.0°F8.9°C 37% 2.3 mph E3.7 kmh E 3.5 mph5.6 kmh 30.11 in1019.6 mb - 0.00 in0.0 mm 0.00 in0.0 mm
06:10 PM 75.5°F24.2°C 48.1°F8.9°C 38% 2.3 mph WSW3.7 kmh WSW 3.5 mph5.6 kmh 30.11 in1019.6 mb - 0.00 in0.0 mm 0.00 in0.0 mm
06:05 PM 75.8°F24.3°C 48.4°F9.1°C 38% 2.3 mph ESE3.7 kmh ESE 2.3 mph3.7 kmh 30.11 in1019.6 mb - 0.00 in0.0 mm 0.00 in0.0 mm
06:00 PM 77.3°F25.2°C 49.0°F9.4°C 37% 2.3 mph NW3.7 kmh NW 5.8 mph9.3 kmh 30.12 in1020.0 mb - 0.00 in0.0 mm 0.00 in0.0 mm
05:55 PM 77.6°F25.3°C 50.0°F10.0°C 38% 1.2 mph E1.9 kmh E 2.3 mph3.7 kmh 30.12 in1020.0 mb - 0.00 in0.0 mm 0.00 in0.0 mm
05:50 PM 77.5°F25.3°C 48.5°F9.2°C 36% 3.5 mph E5.6 kmh E 2.3 mph3.7 kmh 30.12 in1020.0 mb - 0.00 in0.0 mm 0.00 in0.0 mm
05:45 PM 78.2°F25.7°C 49.8°F9.9°C 37% 2.3 mph E3.7 kmh E 6.9 mph11.1 kmh 30.12 in1020.0 mb - 0.00 in0.0 mm 0.00 in0.0 mm
05:40 PM 76.8°F24.9°C 50.6°F10.3°C 40% 1.2 mph ESE1.9 kmh ESE 4.6 mph7.4 kmh 30.12 in1020.0 mb - 0.00 in0.0 mm 0.00 in0.0 mm
05:35 PM 76.7°F24.8°C 48.5°F9.2°C 37% 1.2 mph ESE1.9 kmh ESE 2.3 mph3.7 kmh 30.12 in1020.0 mb - 0.00 in0.0 mm 0.00 in0.0 mm
05:30 PM 76.3°F24.6°C 48.8°F9.3°C 38% 1.2 mph ESE1.9 kmh ESE 2.3 mph3.7 kmh 30.12 in1020.0 mb - 0.00 in0.0 mm 0.00 in0.0 mm
05:25 PM 75.5°F24.2°C 49.5°F9.7°C 40% 1.2 mph ESE1.9 kmh ESE 1.2 mph1.9 kmh 30.12 in1020.0 mb - 0.00 in0.0 mm 0.00 in0.0 mm
05:20 PM 76.3°F24.6°C 49.6°F9.8°C 39% 1.2 mph ESE1.9 kmh ESE 3.5 mph5.6 kmh 30.12 in1020.0 mb - 0.00 in0.0 mm 0.00 in0.0 mm
05:15 PM 77.2°F25.1°C 50.3°F10.2°C 39% 1.2 mph ESE1.9 kmh ESE 3.5 mph5.6 kmh 30.12 in1020.0 mb - 0.00 in0.0 mm 0.00 in0.0 mm
05:10 PM 76.3°F24.6°C 48.8°F9.3°C 38% 2.3 mph ESE3.7 kmh ESE 2.3 mph3.7 kmh 30.12 in1020.0 mb - 0.00 in0.0 mm 0.00 in0.0 mm
05:05 PM 74.7°F23.7°C 49.4°F9.7°C 41% Calm Calm 1.2 mph1.9 kmh 30.12 in1020.0 mb - 0.00 in0.0 mm 0.00 in0.0 mm
05:00 PM 73.6°F23.1°C 49.1°F9.5°C 42% 1.2 mph ESE1.9 kmh ESE 1.2 mph1.9 kmh 30.13 in1020.3 mb - 0.00 in0.0 mm 0.00 in0.0 mm
04:55 PM 73.9°F23.3°C 48.7°F9.3°C 41% 1.2 mph ESE1.9 kmh ESE 1.2 mph1.9 kmh 30.13 in1020.3 mb - 0.00 in0.0 mm 0.00 in0.0 mm
04:50 PM 75.4°F24.1°C 51.3°F10.7°C 43% Calm Calm 2.3 mph3.7 kmh 30.13 in1020.3 mb - 0.00 in0.0 mm 0.00 in0.0 mm
04:45 PM 74.0°F23.3°C 48.2°F9.0°C 40% Calm Calm -- 30.13 in1020.3 mb - 0.00 in0.0 mm 0.00 in0.0 mm
04:40 PM 75.9°F24.4°C 49.1°F9.5°C 39% 2.3 mph ESE3.7 kmh ESE 1.2 mph1.9 kmh 30.13 in1020.3 mb - 0.00 in0.0 mm 0.00 in0.0 mm
04:35 PM 77.3°F25.2°C 50.4°F10.2°C 39% 2.3 mph ESE3.7 kmh ESE 2.3 mph3.7 kmh 30.13 in1020.3 mb - 0.00 in0.0 mm 0.00 in0.0 mm
04:30 PM 77.9°F25.5°C 49.5°F9.7°C 37% 2.3 mph E3.7 kmh E 3.5 mph5.6 kmh 30.13 in1020.3 mb - 0.00 in0.0 mm 0.00 in0.0 mm
04:25 PM 77.6°F25.3°C 50.0°F10.0°C 38% 2.3 mph E3.7 kmh E 3.5 mph5.6 kmh 30.13 in1020.3 mb - 0.00 in0.0 mm 0.00 in0.0 mm
04:20 PM 76.3°F24.6°C 47.4°F8.6°C 36% 2.3 mph SW3.7 kmh SW 1.2 mph1.9 kmh 30.13 in1020.3 mb - 0.00 in0.0 mm 0.00 in0.0 mm
04:15 PM 77.3°F25.2°C 49.0°F9.4°C 37% 2.3 mph ESE3.7 kmh ESE 3.5 mph5.6 kmh 30.13 in1020.3 mb - 0.00 in0.0 mm 0.00 in0.0 mm
04:10 PM 76.4°F24.7°C 48.9°F9.4°C 38% 2.3 mph ESE3.7 kmh ESE 3.5 mph5.6 kmh 30.14 in1020.7 mb - 0.00 in0.0 mm 0.00 in0.0 mm
04:05 PM 77.0°F25.0°C 51.5°F10.8°C 41% 1.2 mph ESE1.9 kmh ESE 4.6 mph7.4 kmh 30.14 in1020.7 mb - 0.00 in0.0 mm 0.00 in0.0 mm
04:00 PM 74.8°F23.8°C 48.2°F9.0°C 39% 3.5 mph ESE5.6 kmh ESE 2.3 mph3.7 kmh 30.14 in1020.7 mb - 0.00 in0.0 mm 0.00 in0.0 mm
03:55 PM 75.8°F24.3°C 49.0°F9.4°C 39% 2.3 mph ESE3.7 kmh ESE 4.6 mph7.4 kmh 30.14 in1020.7 mb - 0.00 in0.0 mm 0.00 in0.0 mm
03:50 PM 74.8°F23.8°C 48.2°F9.0°C 39% 2.3 mph ESE3.7 kmh ESE 1.2 mph1.9 kmh 30.14 in1020.7 mb - 0.00 in0.0 mm 0.00 in0.0 mm
03:45 PM 74.6°F23.7°C 49.3°F9.6°C 41% 3.5 mph ESE5.6 kmh ESE 2.3 mph3.7 kmh 30.14 in1020.7 mb - 0.00 in0.0 mm 0.00 in0.0 mm
03:40 PM 77.2°F25.1°C 50.3°F10.2°C 39% 29.9 mph ESE48.1 kmh ESE 3.5 mph5.6 kmh 30.14 in1020.7 mb - 0.00 in0.0 mm 0.00 in0.0 mm
03:35 PM 76.8°F24.9°C 49.2°F9.6°C 38% 1.2 mph E1.9 kmh E 4.6 mph7.4 kmh 30.14 in1020.7 mb - 0.00 in0.0 mm 0.00 in0.0 mm
03:30 PM 75.8°F24.3°C 49.1°F9.5°C 39% 41.4 mph E66.6 kmh E 1.2 mph1.9 kmh 30.14 in1020.7 mb - 0.00 in0.0 mm 0.00 in0.0 mm
03:25 PM 73.9°F23.3°C 48.1°F8.9°C 40% 2.3 mph E3.7 kmh E -- 30.14 in1020.7 mb - 0.00 in0.0 mm 0.00 in0.0 mm
03:20 PM 76.3°F24.6°C 49.5°F9.7°C 39% 2.3 mph E3.7 kmh E 2.3 mph3.7 kmh 30.14 in1020.7 mb - 0.00 in0.0 mm 0.00 in0.0 mm
03:15 PM 77.4°F25.2°C 50.5°F10.3°C 39% 2.3 mph E3.7 kmh E 2.3 mph3.7 kmh 30.14 in1020.7 mb - 0.00 in0.0 mm 0.00 in0.0 mm
03:10 PM 77.0°F25.0°C 50.1°F10.1°C 39% 29.9 mph ESE48.1 kmh ESE 2.3 mph3.7 kmh 30.14 in1020.7 mb - 0.00 in0.0 mm 0.00 in0.0 mm
03:05 PM 76.4°F24.7°C 49.6°F9.8°C 39% 1.2 mph ESE1.9 kmh ESE 3.5 mph5.6 kmh 30.14 in1020.7 mb - 0.00 in0.0 mm 0.00 in0.0 mm
03:00 PM 77.1°F25.1°C 48.1°F8.9°C 36% 3.5 mph ESE5.6 kmh ESE 4.6 mph7.4 kmh 30.14 in1020.7 mb - 0.00 in0.0 mm 0.00 in0.0 mm
02:55 PM 76.4°F24.7°C 48.2°F9.0°C 37% 2.3 mph E3.7 kmh E 3.5 mph5.6 kmh 30.14 in1020.7 mb - 0.00 in0.0 mm 0.00 in0.0 mm
02:50 PM 77.4°F25.2°C 49.8°F9.9°C 38% 2.3 mph ESE3.7 kmh ESE 2.3 mph3.7 kmh 30.14 in1020.7 mb - 0.00 in0.0 mm 0.00 in0.0 mm
02:45 PM 76.6°F24.8°C 50.5°F10.3°C 40% 3.5 mph ESE5.6 kmh ESE 5.8 mph9.3 kmh 30.14 in1020.7 mb - 0.00 in0.0 mm 0.00 in0.0 mm
02:40 PM 77.6°F25.3°C 50.7°F10.4°C 39% 3.5 mph E5.6 kmh E 3.5 mph5.6 kmh 30.14 in1020.7 mb - 0.00 in0.0 mm 0.00 in0.0 mm
02:35 PM 77.4°F25.2°C 50.5°F10.3°C 39% 2.3 mph W3.7 kmh W 3.5 mph5.6 kmh 30.15 in1021.0 mb - 0.00 in0.0 mm 0.00 in0.0 mm
02:30 PM 76.7°F24.8°C 50.6°F10.3°C 40% 3.5 mph ESE5.6 kmh ESE 3.5 mph5.6 kmh 30.15 in1021.0 mb - 0.00 in0.0 mm 0.00 in0.0 mm
02:25 PM 77.0°F25.0°C 49.4°F9.7°C 38% 2.3 mph ENE3.7 kmh ENE 5.8 mph9.3 kmh 30.15 in1021.0 mb - 0.00 in0.0 mm 0.00 in0.0 mm
02:20 PM 75.8°F24.3°C 49.1°F9.5°C 39% 3.5 mph S5.6 kmh S 4.6 mph7.4 kmh 30.15 in1021.0 mb - 0.00 in0.0 mm 0.00 in0.0 mm
02:15 PM 76.4°F24.7°C 50.3°F10.2°C 40% 3.5 mph NW5.6 kmh NW 4.6 mph7.4 kmh 30.15 in1021.0 mb - 0.00 in0.0 mm 0.00 in0.0 mm
02:10 PM 75.5°F24.2°C 50.1°F10.1°C 41% 3.5 mph WSW5.6 kmh WSW 4.6 mph7.4 kmh 30.15 in1021.0 mb - 0.00 in0.0 mm 0.00 in0.0 mm
02:05 PM 74.9°F23.8°C 50.3°F10.2°C 42% 3.5 mph ESE5.6 kmh ESE 2.3 mph3.7 kmh 30.15 in1021.0 mb - 0.00 in0.0 mm 0.00 in0.0 mm
02:00 PM 76.0°F24.4°C 49.2°F9.6°C 39% 3.5 mph W5.6 kmh W 5.8 mph9.3 kmh 30.16 in1021.3 mb - 0.00 in0.0 mm 0.00 in0.0 mm
01:55 PM 76.3°F24.6°C 51.5°F10.8°C 42% 3.5 mph E5.6 kmh E 3.5 mph5.6 kmh 30.16 in1021.3 mb - 0.00 in0.0 mm 0.00 in0.0 mm
01:50 PM 76.4°F24.7°C 50.3°F10.2°C 40% 3.5 mph E5.6 kmh E 5.8 mph9.3 kmh 30.16 in1021.3 mb - 0.00 in0.0 mm 0.00 in0.0 mm
01:45 PM 76.2°F24.6°C 50.1°F10.1°C 40% 2.3 mph ESE3.7 kmh ESE 2.3 mph3.7 kmh 30.16 in1021.3 mb - 0.00 in0.0 mm 0.00 in0.0 mm
01:40 PM 74.6°F23.7°C 48.7°F9.3°C 40% 2.3 mph ESE3.7 kmh ESE 2.3 mph3.7 kmh 30.16 in1021.3 mb - 0.00 in0.0 mm 0.00 in0.0 mm
01:35 PM 74.7°F23.7°C 48.8°F9.3°C 40% 4.6 mph WNW7.4 kmh WNW 5.8 mph9.3 kmh 30.17 in1021.7 mb - 0.00 in0.0 mm 0.00 in0.0 mm
01:30 PM 74.9°F23.8°C 49.6°F9.8°C 41% 3.5 mph W5.6 kmh W 8.1 mph13.0 kmh 30.17 in1021.7 mb - 0.00 in0.0 mm 0.00 in0.0 mm
01:25 PM 75.3°F24.1°C 49.3°F9.6°C 40% 2.3 mph E3.7 kmh E 3.5 mph5.6 kmh 30.17 in1021.7 mb - 0.00 in0.0 mm 0.00 in0.0 mm
01:20 PM 74.7°F23.7°C 48.8°F9.3°C 40% 3.5 mph WNW5.6 kmh WNW 5.8 mph9.3 kmh 30.17 in1021.7 mb - 0.00 in0.0 mm 0.00 in0.0 mm
01:15 PM 74.5°F23.6°C 50.5°F10.3°C 43% 3.5 mph E5.6 kmh E 4.6 mph7.4 kmh 30.17 in1021.7 mb - 0.00 in0.0 mm 0.00 in0.0 mm
01:10 PM 74.8°F23.8°C 49.5°F9.7°C 41% 2.3 mph ESE3.7 kmh ESE 3.5 mph5.6 kmh 30.16 in1021.3 mb - 0.00 in0.0 mm 0.00 in0.0 mm
01:05 PM 74.9°F23.8°C 49.6°F9.8°C 41% 3.5 mph W5.6 kmh W 4.6 mph7.4 kmh 30.16 in1021.3 mb - 0.00 in0.0 mm 0.00 in0.0 mm
01:00 PM 73.9°F23.3°C 50.0°F10.0°C 43% 2.3 mph ESE3.7 kmh ESE 3.5 mph5.6 kmh 30.17 in1021.7 mb - 0.00 in0.0 mm 0.00 in0.0 mm
12:55 PM 73.6°F23.1°C 50.4°F10.2°C 44% 2.3 mph ESE3.7 kmh ESE 2.3 mph3.7 kmh 30.17 in1021.7 mb - 0.00 in0.0 mm 0.00 in0.0 mm
12:50 PM 73.0°F22.8°C 50.4°F10.2°C 45% 3.5 mph NW5.6 kmh NW 5.8 mph9.3 kmh 30.17 in1021.7 mb - 0.00 in0.0 mm 0.00 in0.0 mm
12:45 PM 73.6°F23.1°C 49.7°F9.8°C 43% 4.6 mph W7.4 kmh W 5.8 mph9.3 kmh 30.17 in1021.7 mb - 0.00 in0.0 mm 0.00 in0.0 mm
12:40 PM 73.6°F23.1°C 50.3°F10.2°C 44% 3.5 mph E5.6 kmh E 5.8 mph9.3 kmh 30.17 in1021.7 mb - 0.00 in0.0 mm 0.00 in0.0 mm
12:35 PM 74.0°F23.3°C 50.7°F10.4°C 44% 3.5 mph E5.6 kmh E 3.5 mph5.6 kmh 30.18 in1022.0 mb - 0.00 in0.0 mm 0.00 in0.0 mm
12:30 PM 72.5°F22.5°C 48.7°F9.3°C 43% 3.5 mph E5.6 kmh E 4.6 mph7.4 kmh 30.18 in1022.0 mb - 0.00 in0.0 mm 0.00 in0.0 mm
12:25 PM 74.5°F23.6°C 51.1°F10.6°C 44% 2.3 mph E3.7 kmh E 5.8 mph9.3 kmh 30.18 in1022.0 mb - 0.00 in0.0 mm 0.00 in0.0 mm
12:20 PM 73.3°F22.9°C 49.5°F9.7°C 43% 3.5 mph NNE5.6 kmh NNE 4.6 mph7.4 kmh 30.18 in1022.0 mb - 0.00 in0.0 mm 0.00 in0.0 mm
12:15 PM 72.9°F22.7°C 49.1°F9.5°C 43% 3.5 mph E5.6 kmh E 2.3 mph3.7 kmh 30.18 in1022.0 mb - 0.00 in0.0 mm 0.00 in0.0 mm
12:10 PM 72.7°F22.6°C 49.5°F9.7°C 44% 3.5 mph WNW5.6 kmh WNW 4.6 mph7.4 kmh 30.18 in1022.0 mb - 0.00 in0.0 mm 0.00 in0.0 mm
12:05 PM 71.6°F22.0°C 48.5°F9.2°C 44% 3.5 mph WNW5.6 kmh WNW 2.3 mph3.7 kmh 30.18 in1022.0 mb - 0.00 in0.0 mm 0.00 in0.0 mm
12:00 PM 72.7°F22.6°C 49.5°F9.7°C 44% 3.5 mph E5.6 kmh E 4.6 mph7.4 kmh 30.18 in1022.0 mb - 0.00 in0.0 mm 0.00 in0.0 mm
11:55 AM 72.0°F22.2°C 48.9°F9.4°C 44% 3.5 mph SE5.6 kmh SE 4.6 mph7.4 kmh 30.18 in1022.0 mb - 0.00 in0.0 mm 0.00 in0.0 mm
11:50 AM 71.9°F22.2°C 48.2°F9.0°C 43% 2.3 mph N3.7 kmh N 2.3 mph3.7 kmh 30.18 in1022.0 mb - 0.00 in0.0 mm 0.00 in0.0 mm
11:45 AM 72.1°F22.3°C 49.0°F9.4°C 44% 3.5 mph WNW5.6 kmh WNW 5.8 mph9.3 kmh 30.19 in1022.4 mb - 0.00 in0.0 mm 0.00 in0.0 mm
11:40 AM 71.6°F22.0°C 49.2°F9.6°C 45% 3.5 mph E5.6 kmh E 2.3 mph3.7 kmh 30.19 in1022.4 mb - 0.00 in0.0 mm 0.00 in0.0 mm
11:35 AM 72.7°F22.6°C 50.1°F10.1°C 45% 3.5 mph E5.6 kmh E 8.1 mph13.0 kmh 30.19 in1022.4 mb - 0.00 in0.0 mm 0.00 in0.0 mm
11:30 AM 71.8°F22.1°C 49.3°F9.6°C 45% 3.5 mph ESE5.6 kmh ESE 3.5 mph5.6 kmh 30.19 in1022.4 mb - 0.00 in0.0 mm 0.00 in0.0 mm
11:25 AM 71.9°F22.2°C 48.8°F9.3°C 44% 43.7 mph NW70.3 kmh NW 5.8 mph9.3 kmh 30.19 in1022.4 mb - 0.00 in0.0 mm 0.00 in0.0 mm
11:20 AM 71.5°F21.9°C 49.1°F9.5°C 45% 2.3 mph ESE3.7 kmh ESE 2.3 mph3.7 kmh 30.19 in1022.4 mb - 0.00 in0.0 mm 0.00 in0.0 mm
11:15 AM 72.0°F22.2°C 49.4°F9.7°C 45% 2.3 mph W3.7 kmh W 4.6 mph7.4 kmh 30.19 in1022.4 mb - 0.00 in0.0 mm 0.00 in0.0 mm
11:10 AM 70.8°F21.6°C 48.4°F9.1°C 45% 3.5 mph WSW5.6 kmh WSW 5.8 mph9.3 kmh 30.19 in1022.4 mb - 0.00 in0.0 mm 0.00 in0.0 mm
11:05 AM 71.2°F21.8°C 49.3°F9.6°C 46% 2.3 mph ESE3.7 kmh ESE 3.5 mph5.6 kmh 30.19 in1022.4 mb - 0.00 in0.0 mm 0.00 in0.0 mm
11:00 AM 71.1°F21.7°C 49.2°F9.6°C 46% 3.5 mph W5.6 kmh W 4.6 mph7.4 kmh 30.19 in1022.4 mb - 0.00 in0.0 mm 0.00 in0.0 mm
10:55 AM 70.9°F21.6°C 49.1°F9.5°C 46% 2.3 mph E3.7 kmh E 3.5 mph5.6 kmh 30.19 in1022.4 mb - 0.00 in0.0 mm 0.00 in0.0 mm
10:50 AM 71.2°F21.8°C 49.9°F9.9°C 47% 2.3 mph E3.7 kmh E 3.5 mph5.6 kmh 30.19 in1022.4 mb - 0.00 in0.0 mm 0.00 in0.0 mm
10:45 AM 71.0°F21.7°C 49.7°F9.8°C 47% 2.3 mph E3.7 kmh E 2.3 mph3.7 kmh 30.19 in1022.4 mb - 0.00 in0.0 mm 0.00 in0.0 mm
10:40 AM 70.8°F21.6°C 49.0°F9.4°C 46% 2.3 mph E3.7 kmh E 2.3 mph3.7 kmh 30.19 in1022.4 mb - 0.00 in0.0 mm 0.00 in0.0 mm
10:35 AM 70.4°F21.3°C 50.3°F10.2°C 49% 2.3 mph E3.7 kmh E 3.5 mph5.6 kmh 30.19 in1022.4 mb - 0.00 in0.0 mm 0.00 in0.0 mm
10:30 AM 69.3°F20.7°C 48.2°F9.0°C 47% 3.5 mph E5.6 kmh E 3.5 mph5.6 kmh 30.19 in1022.4 mb - 0.00 in0.0 mm 0.00 in0.0 mm
10:25 AM 69.6°F20.9°C 48.5°F9.2°C 47% 2.3 mph ESE3.7 kmh ESE 3.5 mph5.6 kmh 30.19 in1022.4 mb - 0.00 in0.0 mm 0.00 in0.0 mm
10:20 AM 69.0°F20.6°C 47.3°F8.5°C 46% 3.5 mph ESE5.6 kmh ESE 4.6 mph7.4 kmh 30.19 in1022.4 mb - 0.00 in0.0 mm 0.00 in0.0 mm
10:15 AM 69.1°F20.6°C 48.0°F8.9°C 47% 2.3 mph ESE3.7 kmh ESE 6.9 mph11.1 kmh 30.19 in1022.4 mb - 0.00 in0.0 mm 0.00 in0.0 mm
10:10 AM 68.2°F20.1°C 47.8°F8.8°C 48% 3.5 mph ENE5.6 kmh ENE 5.8 mph9.3 kmh 30.20 in1022.7 mb - 0.00 in0.0 mm 0.00 in0.0 mm
10:05 AM 68.6°F20.3°C 48.7°F9.3°C 49% 2.3 mph NE3.7 kmh NE 4.6 mph7.4 kmh 30.20 in1022.7 mb - 0.00 in0.0 mm 0.00 in0.0 mm
10:00 AM 69.4°F20.8°C 50.5°F10.3°C 51% 2.3 mph E3.7 kmh E 3.5 mph5.6 kmh 30.20 in1022.7 mb - 0.00 in0.0 mm 0.00 in0.0 mm
09:55 AM 68.4°F20.2°C 49.1°F9.5°C 50% 2.3 mph E3.7 kmh E 3.5 mph5.6 kmh 30.20 in1022.7 mb - 0.00 in0.0 mm 0.00 in0.0 mm
09:50 AM 68.2°F20.1°C 49.9°F9.9°C 52% 2.3 mph E3.7 kmh E 1.2 mph1.9 kmh 30.20 in1022.7 mb - 0.00 in0.0 mm 0.00 in0.0 mm
09:45 AM 68.3°F20.2°C 50.0°F10.0°C 52% 2.3 mph NNE3.7 kmh NNE 4.6 mph7.4 kmh 30.20 in1022.7 mb - 0.00 in0.0 mm 0.00 in0.0 mm
09:40 AM 67.8°F19.9°C 50.6°F10.3°C 54% 1.2 mph E1.9 kmh E 1.2 mph1.9 kmh 30.20 in1022.7 mb - 0.00 in0.0 mm 0.00 in0.0 mm
09:35 AM 67.7°F19.8°C 50.4°F10.2°C 54% 2.3 mph E3.7 kmh E 2.3 mph3.7 kmh 30.20 in1022.7 mb - 0.00 in0.0 mm 0.00 in0.0 mm
09:30 AM 66.7°F19.3°C 50.1°F10.1°C 55% 2.3 mph NNE3.7 kmh NNE 5.8 mph9.3 kmh 30.20 in1022.7 mb - 0.00 in0.0 mm 0.00 in0.0 mm
09:25 AM 66.4°F19.1°C 50.2°F10.1°C 56% 2.3 mph W3.7 kmh W 2.3 mph3.7 kmh 30.20 in1022.7 mb - 0.00 in0.0 mm 0.00 in0.0 mm
09:20 AM 65.6°F18.7°C 49.9°F9.9°C 57% 2.3 mph E3.7 kmh E 4.6 mph7.4 kmh 30.20 in1022.7 mb - 0.00 in0.0 mm 0.00 in0.0 mm
09:15 AM 65.0°F18.3°C 49.0°F9.4°C 56% 2.3 mph E3.7 kmh E 2.3 mph3.7 kmh 30.20 in1022.7 mb - 0.00 in0.0 mm 0.00 in0.0 mm
09:10 AM 65.5°F18.6°C 49.9°F9.9°C 57% 2.3 mph E3.7 kmh E 3.5 mph5.6 kmh 30.20 in1022.7 mb - 0.00 in0.0 mm 0.00 in0.0 mm
09:05 AM 65.5°F18.6°C 50.8°F10.4°C 59% 2.3 mph ESE3.7 kmh ESE 3.5 mph5.6 kmh 30.20 in1022.7 mb - 0.00 in0.0 mm 0.00 in0.0 mm
09:00 AM 65.0°F18.3°C 50.8°F10.4°C 60% 2.3 mph ESE3.7 kmh ESE 3.5 mph5.6 kmh 30.20 in1022.7 mb - 0.00 in0.0 mm 0.00 in0.0 mm
08:55 AM 64.0°F17.8°C 50.3°F10.2°C 61% 2.3 mph ESE3.7 kmh ESE 2.3 mph3.7 kmh 30.20 in1022.7 mb - 0.00 in0.0 mm 0.00 in0.0 mm
08:50 AM 65.0°F18.3°C 50.8°F10.4°C 60% 1.2 mph ESE1.9 kmh ESE 4.6 mph7.4 kmh 30.20 in1022.7 mb - 0.00 in0.0 mm 0.00 in0.0 mm
08:45 AM 63.7°F17.6°C 50.4°F10.2°C 62% 2.3 mph ESE3.7 kmh ESE 3.5 mph5.6 kmh 30.19 in1022.4 mb - 0.00 in0.0 mm 0.00 in0.0 mm
08:40 AM 63.6°F17.6°C 50.7°F10.4°C 63% 2.3 mph ESE3.7 kmh ESE 3.5 mph5.6 kmh 30.19 in1022.4 mb - 0.00 in0.0 mm 0.00 in0.0 mm
08:35 AM 63.7°F17.6°C 51.7°F10.9°C 65% 2.3 mph ESE3.7 kmh ESE 5.8 mph9.3 kmh 30.20 in1022.7 mb - 0.00 in0.0 mm 0.00 in0.0 mm
08:30 AM 62.6°F17.0°C 51.1°F10.6°C 66% 2.3 mph ESE3.7 kmh ESE 2.3 mph3.7 kmh 30.20 in1022.7 mb - 0.00 in0.0 mm 0.00 in0.0 mm
08:25 AM 62.1°F16.7°C 51.0°F10.6°C 67% 2.3 mph ESE3.7 kmh ESE 3.5 mph5.6 kmh 30.20 in1022.7 mb - 0.00 in0.0 mm 0.00 in0.0 mm
08:20 AM 62.1°F16.7°C 51.8°F11.0°C 69% 2.3 mph ESE3.7 kmh ESE 1.2 mph1.9 kmh 30.20 in1022.7 mb - 0.00 in0.0 mm 0.00 in0.0 mm
08:15 AM 61.3°F16.3°C 51.0°F10.6°C 69% 2.3 mph ESE3.7 kmh ESE 4.6 mph7.4 kmh 30.20 in1022.7 mb - 0.00 in0.0 mm 0.00 in0.0 mm
08:10 AM 61.1°F16.2°C 51.2°F10.7°C 70% 1.2 mph ESE1.9 kmh ESE -- 30.20 in1022.7 mb - 0.00 in0.0 mm 0.00 in0.0 mm
08:05 AM 60.3°F15.7°C 51.2°F10.7°C 72% 28.8 mph ESE46.3 kmh ESE 2.3 mph3.7 kmh 30.20 in1022.7 mb - 0.00 in0.0 mm 0.00 in0.0 mm
08:00 AM 60.0°F15.6°C 50.9°F10.5°C 72% 1.2 mph ESE1.9 kmh ESE 2.3 mph3.7 kmh 30.20 in1022.7 mb - 0.00 in0.0 mm 0.00 in0.0 mm
07:55 AM 59.4°F15.2°C 50.4°F10.2°C 72% 2.3 mph ESE3.7 kmh ESE 1.2 mph1.9 kmh 30.20 in1022.7 mb - 0.00 in0.0 mm 0.00 in0.0 mm
07:50 AM 59.3°F15.2°C 50.6°F10.3°C 73% 2.3 mph ESE3.7 kmh ESE 2.3 mph3.7 kmh 30.20 in1022.7 mb - 0.00 in0.0 mm 0.00 in0.0 mm
07:45 AM 57.9°F14.4°C 50.4°F10.2°C 76% 1.2 mph ESE1.9 kmh ESE 2.3 mph3.7 kmh 30.20 in1022.7 mb - 0.00 in0.0 mm 0.00 in0.0 mm
07:40 AM 57.4°F14.1°C 50.2°F10.1°C 77% 1.2 mph ESE1.9 kmh ESE -- 30.20 in1022.7 mb - 0.00 in0.0 mm 0.00 in0.0 mm
07:35 AM 56.0°F13.3°C 49.9°F9.9°C 80% 2.3 mph ESE3.7 kmh ESE 2.3 mph3.7 kmh 30.20 in1022.7 mb - 0.00 in0.0 mm 0.00 in0.0 mm
07:30 AM 55.0°F12.8°C 49.3°F9.6°C 81% 2.3 mph ESE3.7 kmh ESE 4.6 mph7.4 kmh 30.20 in1022.7 mb - 0.00 in0.0 mm 0.00 in0.0 mm
07:25 AM 53.9°F12.2°C 48.8°F9.3°C 83% 1.2 mph ESE1.9 kmh ESE 2.3 mph3.7 kmh 30.20 in1022.7 mb - 0.00 in0.0 mm 0.00 in0.0 mm
07:20 AM 53.8°F12.1°C 49.1°F9.5°C 84% 1.2 mph ESE1.9 kmh ESE 1.2 mph1.9 kmh 30.20 in1022.7 mb - 0.00 in0.0 mm 0.00 in0.0 mm
07:15 AM 53.3°F11.8°C 48.6°F9.2°C 84% 2.3 mph ESE3.7 kmh ESE 2.3 mph3.7 kmh 30.20 in1022.7 mb - 0.00 in0.0 mm 0.00 in0.0 mm
07:10 AM 52.2°F11.2°C 48.4°F9.1°C 87% 1.2 mph ESE1.9 kmh ESE 2.3 mph3.7 kmh 30.19 in1022.4 mb - 0.00 in0.0 mm 0.00 in0.0 mm
07:05 AM 51.8°F11.0°C 48.3°F9.1°C 88% 1.2 mph ESE1.9 kmh ESE 3.5 mph5.6 kmh 30.19 in1022.4 mb - 0.00 in0.0 mm 0.00 in0.0 mm
07:00 AM 51.4°F10.8°C 48.0°F8.9°C 88% Calm Calm -- 30.19 in1022.4 mb - 0.00 in0.0 mm 0.00 in0.0 mm
06:55 AM 51.1°F10.6°C 47.6°F8.7°C 88% 1.2 mph ESE1.9 kmh ESE -- 30.19 in1022.4 mb - 0.00 in0.0 mm 0.00 in0.0 mm
06:50 AM 51.1°F10.6°C 48.0°F8.9°C 89% 1.2 mph ESE1.9 kmh ESE 1.2 mph1.9 kmh 30.19 in1022.4 mb - 0.00 in0.0 mm 0.00 in0.0 mm
06:45 AM 50.6°F10.3°C 47.5°F8.6°C 89% 1.2 mph ESE1.9 kmh ESE 1.2 mph1.9 kmh 30.19 in1022.4 mb - 0.00 in0.0 mm 0.00 in0.0 mm
06:40 AM 50.2°F10.1°C 47.4°F8.6°C 90% 1.2 mph ESE1.9 kmh ESE 1.2 mph1.9 kmh 30.19 in1022.4 mb - 0.00 in0.0 mm 0.00 in0.0 mm
06:35 AM 50.2°F10.1°C 47.3°F8.5°C 90% 1.2 mph ESE1.9 kmh ESE 3.5 mph5.6 kmh 30.19 in1022.4 mb - 0.00 in0.0 mm 0.00 in0.0 mm
06:30 AM 49.6°F9.8°C 46.8°F8.2°C 90% 1.2 mph ESE1.9 kmh ESE 2.3 mph3.7 kmh 30.19 in1022.4 mb - 0.00 in0.0 mm 0.00 in0.0 mm
06:25 AM 49.6°F9.8°C 46.8°F8.2°C 90% 1.2 mph ESE1.9 kmh ESE 2.3 mph3.7 kmh 30.19 in1022.4 mb - 0.00 in0.0 mm 0.00 in0.0 mm
06:20 AM 49.3°F9.6°C 46.8°F8.2°C 91% Calm Calm 2.3 mph3.7 kmh 30.19 in1022.4 mb - 0.00 in0.0 mm 0.00 in0.0 mm
06:15 AM 49.2°F9.6°C 46.7°F8.2°C 91% 1.2 mph ESE1.9 kmh ESE 1.2 mph1.9 kmh 30.19 in1022.4 mb - 0.00 in0.0 mm 0.00 in0.0 mm
06:10 AM 48.9°F9.4°C 46.4°F8.0°C 91% 1.2 mph ESE1.9 kmh ESE 2.3 mph3.7 kmh 30.19 in1022.4 mb - 0.00 in0.0 mm 0.00 in0.0 mm
06:05 AM 48.7°F9.3°C 46.2°F7.9°C 91% 1.2 mph ESE1.9 kmh ESE 1.2 mph1.9 kmh 30.19 in1022.4 mb - 0.00 in0.0 mm 0.00 in0.0 mm
06:00 AM 48.7°F9.3°C 46.2°F7.9°C 91% Calm Calm 3.5 mph5.6 kmh 30.18 in1022.0 mb - 0.00 in0.0 mm 0.00 in0.0 mm
05:55 AM 48.9°F9.4°C 46.4°F8.0°C 91% 1.2 mph ESE1.9 kmh ESE -- 30.18 in1022.0 mb - 0.00 in0.0 mm 0.00 in0.0 mm
05:50 AM 48.9°F9.4°C 46.1°F7.8°C 90% Calm Calm 2.3 mph3.7 kmh 30.18 in1022.0 mb - 0.00 in0.0 mm 0.00 in0.0 mm
05:45 AM 48.9°F9.4°C 46.1°F7.8°C 90% Calm Calm 2.3 mph3.7 kmh 30.18 in1022.0 mb - 0.00 in0.0 mm 0.00 in0.0 mm
05:40 AM 49.3°F9.6°C 46.5°F8.1°C 90% Calm Calm -- 30.18 in1022.0 mb - 0.00 in0.0 mm 0.00 in0.0 mm
05:35 AM 49.3°F9.6°C 46.2°F7.9°C 89% Calm Calm 1.2 mph1.9 kmh 30.18 in1022.0 mb - 0.00 in0.0 mm 0.00 in0.0 mm
05:30 AM 49.6°F9.8°C 46.5°F8.1°C 89% Calm Calm -- 30.18 in1022.0 mb - 0.00 in0.0 mm 0.00 in0.0 mm
05:25 AM 49.6°F9.8°C 46.5°F8.1°C 89% Calm Calm -- 30.18 in1022.0 mb - 0.00 in0.0 mm 0.00 in0.0 mm
05:20 AM 49.8°F9.9°C 46.7°F8.2°C 89% Calm Calm -- 30.17 in1021.7 mb - 0.00 in0.0 mm 0.00 in0.0 mm
05:15 AM 50.2°F10.1°C 47.1°F8.4°C 89% 1.2 mph ESE1.9 kmh ESE -- 30.17 in1021.7 mb - 0.00 in0.0 mm 0.00 in0.0 mm
05:10 AM 50.2°F10.1°C 47.1°F8.4°C 89% Calm Calm -- 30.17 in1021.7 mb - 0.00 in0.0 mm 0.00 in0.0 mm
05:05 AM 50.2°F10.1°C 47.1°F8.4°C 89% Calm Calm -- 30.17 in1021.7 mb - 0.00 in0.0 mm 0.00 in0.0 mm
05:00 AM 50.2°F10.1°C 47.1°F8.4°C 89% 1.2 mph ESE1.9 kmh ESE 1.2 mph1.9 kmh 30.17 in1021.7 mb - 0.00 in0.0 mm 0.00 in0.0 mm
04:55 AM 50.2°F10.1°C 47.1°F8.4°C 89% Calm Calm -- 30.16 in1021.3 mb - 0.00 in0.0 mm 0.00 in0.0 mm
04:50 AM 50.2°F10.1°C 47.0°F8.3°C 89% Calm Calm -- 30.16 in1021.3 mb - 0.00 in0.0 mm 0.00 in0.0 mm
04:45 AM 50.2°F10.1°C 47.1°F8.4°C 89% Calm Calm -- 30.17 in1021.7 mb - 0.00 in0.0 mm 0.00 in0.0 mm
04:40 AM 49.6°F9.8°C 46.8°F8.2°C 90% 1.2 mph ESE1.9 kmh ESE 2.3 mph3.7 kmh 30.17 in1021.7 mb - 0.00 in0.0 mm 0.00 in0.0 mm
04:35 AM 49.5°F9.7°C 46.7°F8.2°C 90% Calm Calm -- 30.16 in1021.3 mb - 0.00 in0.0 mm 0.00 in0.0 mm
04:30 AM 49.5°F9.7°C 46.6°F8.1°C 90% Calm Calm 1.2 mph1.9 kmh 30.16 in1021.3 mb - 0.00 in0.0 mm 0.00 in0.0 mm
04:25 AM 49.3°F9.6°C 46.5°F8.1°C 90% Calm Calm 1.2 mph1.9 kmh 30.16 in1021.3 mb - 0.00 in0.0 mm 0.00 in0.0 mm
04:20 AM 49.5°F9.7°C 46.6°F8.1°C 90% Calm Calm 1.2 mph1.9 kmh 30.16 in1021.3 mb - 0.00 in0.0 mm 0.00 in0.0 mm
04:15 AM 49.3°F9.6°C 46.5°F8.1°C 90% Calm Calm -- 30.16 in1021.3 mb - 0.00 in0.0 mm 0.00 in0.0 mm
04:10 AM 49.3°F9.6°C 46.5°F8.1°C 90% Calm Calm 2.3 mph3.7 kmh 30.16 in1021.3 mb - 0.00 in0.0 mm 0.00 in0.0 mm
04:05 AM 49.3°F9.6°C 46.5°F8.1°C 90% 1.2 mph ESE1.9 kmh ESE 1.2 mph1.9 kmh 30.16 in1021.3 mb - 0.00 in0.0 mm 0.00 in0.0 mm
04:00 AM 49.3°F9.6°C 46.5°F8.1°C 90% Calm Calm -- 30.16 in1021.3 mb - 0.00 in0.0 mm 0.00 in0.0 mm
03:55 AM 49.3°F9.6°C 46.5°F8.1°C 90% 1.2 mph ESE1.9 kmh ESE -- 30.16 in1021.3 mb - 0.00 in0.0 mm 0.00 in0.0 mm
03:50 AM 49.5°F9.7°C 46.4°F8.0°C 89% 1.2 mph ESE1.9 kmh ESE 2.3 mph3.7 kmh 30.16 in1021.3 mb - 0.00 in0.0 mm 0.00 in0.0 mm
03:45 AM 49.6°F9.8°C 46.5°F8.1°C 89% Calm Calm -- 30.16 in1021.3 mb - 0.00 in0.0 mm 0.00 in0.0 mm
03:40 AM 49.8°F9.9°C 46.7°F8.2°C 89% Calm Calm 1.2 mph1.9 kmh 30.16 in1021.3 mb - 0.00 in0.0 mm 0.00 in0.0 mm
03:35 AM 50.2°F10.1°C 47.1°F8.4°C 89% Calm Calm -- 30.16 in1021.3 mb - 0.00 in0.0 mm 0.00 in0.0 mm
03:30 AM 50.2°F10.1°C 47.1°F8.4°C 89% 1.2 mph ESE1.9 kmh ESE 1.2 mph1.9 kmh 30.16 in1021.3 mb - 0.00 in0.0 mm 0.00 in0.0 mm
03:25 AM 50.5°F10.3°C 47.1°F8.4°C 88% Calm Calm -- 30.16 in1021.3 mb - 0.00 in0.0 mm 0.00 in0.0 mm
03:20 AM 50.5°F10.3°C 47.1°F8.4°C 88% Calm Calm -- 30.16 in1021.3 mb - 0.00 in0.0 mm 0.00 in0.0 mm
03:15 AM 50.7°F10.4°C 47.3°F8.5°C 88% Calm Calm 1.2 mph1.9 kmh 30.16 in1021.3 mb - 0.00 in0.0 mm 0.00 in0.0 mm
03:10 AM 51.1°F10.6°C 47.3°F8.5°C 87% Calm Calm -- 30.16 in1021.3 mb - 0.00 in0.0 mm 0.00 in0.0 mm
03:05 AM 51.4°F10.8°C 47.7°F8.7°C 87% Calm Calm -- 30.16 in1021.3 mb - 0.00 in0.0 mm 0.00 in0.0 mm
03:00 AM 51.7°F10.9°C 47.7°F8.7°C 86% Calm Calm -- 30.15 in1021.0 mb - 0.00 in0.0 mm 0.00 in0.0 mm
02:55 AM 52.0°F11.1°C 47.9°F8.8°C 86% Calm Calm 1.2 mph1.9 kmh 30.15 in1021.0 mb - 0.00 in0.0 mm 0.00 in0.0 mm
02:50 AM 52.3°F11.3°C 48.0°F8.9°C 85% Calm Calm -- 30.15 in1021.0 mb - 0.00 in0.0 mm 0.00 in0.0 mm
02:45 AM 52.9°F11.6°C 48.5°F9.2°C 85% Calm Calm -- 30.16 in1021.3 mb - 0.00 in0.0 mm 0.00 in0.0 mm
02:40 AM 53.1°F11.7°C 48.7°F9.3°C 85% Calm Calm -- 30.16 in1021.3 mb - 0.00 in0.0 mm 0.00 in0.0 mm
02:35 AM 53.4°F11.9°C 48.6°F9.2°C 84% Calm Calm -- 30.15 in1021.0 mb - 0.00 in0.0 mm 0.00 in0.0 mm
02:30 AM 53.8°F12.1°C 48.7°F9.3°C 83% Calm Calm 1.2 mph1.9 kmh 30.15 in1021.0 mb - 0.00 in0.0 mm 0.00 in0.0 mm
02:25 AM 54.1°F12.3°C 49.1°F9.5°C 83% Calm Calm -- 30.15 in1021.0 mb - 0.00 in0.0 mm 0.00 in0.0 mm
02:20 AM 54.3°F12.4°C 49.3°F9.6°C 83% 1.2 mph ESE1.9 kmh ESE 1.2 mph1.9 kmh 30.15 in1021.0 mb - 0.00 in0.0 mm 0.00 in0.0 mm
02:15 AM 54.7°F12.6°C 49.6°F9.8°C 83% 1.2 mph ESE1.9 kmh ESE 1.2 mph1.9 kmh 30.15 in1021.0 mb - 0.00 in0.0 mm 0.00 in0.0 mm
02:10 AM 54.7°F12.6°C 49.6°F9.8°C 83% 1.2 mph ESE1.9 kmh ESE 1.2 mph1.9 kmh 30.15 in1021.0 mb - 0.00 in0.0 mm 0.00 in0.0 mm
02:05 AM 54.7°F12.6°C 49.3°F9.6°C 82% Calm Calm 1.2 mph1.9 kmh 30.15 in1021.0 mb - 0.00 in0.0 mm 0.00 in0.0 mm
02:00 AM 54.7°F12.6°C 49.3°F9.6°C 82% 1.2 mph ESE1.9 kmh ESE 1.2 mph1.9 kmh 30.16 in1021.3 mb - 0.00 in0.0 mm 0.00 in0.0 mm
01:55 AM 54.7°F12.6°C 49.3°F9.6°C 82% 1.2 mph ESE1.9 kmh ESE 2.3 mph3.7 kmh 30.16 in1021.3 mb - 0.00 in0.0 mm 0.00 in0.0 mm
01:50 AM 54.9°F12.7°C 49.5°F9.7°C 82% 1.2 mph ESE1.9 kmh ESE 2.3 mph3.7 kmh 30.16 in1021.3 mb - 0.00 in0.0 mm 0.00 in0.0 mm
01:45 AM 54.9°F12.7°C 49.5°F9.7°C 82% Calm Calm 2.3 mph3.7 kmh 30.16 in1021.3 mb - 0.00 in0.0 mm 0.00 in0.0 mm
01:40 AM 54.9°F12.7°C 49.5°F9.7°C 82% Calm Calm -- 30.16 in1021.3 mb - 0.00 in0.0 mm 0.00 in0.0 mm
01:35 AM 54.9°F12.7°C 49.1°F9.5°C 81% Calm Calm -- 30.15 in1021.0 mb - 0.00 in0.0 mm 0.00 in0.0 mm
01:30 AM 54.9°F12.7°C 49.1°F9.5°C 81% 1.2 mph ESE1.9 kmh ESE 1.2 mph1.9 kmh 30.15 in1021.0 mb - 0.00 in0.0 mm 0.00 in0.0 mm
01:25 AM 55.0°F12.8°C 49.3°F9.6°C 81% Calm Calm 1.2 mph1.9 kmh 30.15 in1021.0 mb - 0.00 in0.0 mm 0.00 in0.0 mm
01:20 AM 55.0°F12.8°C 49.0°F9.4°C 80% Calm Calm 1.2 mph1.9 kmh 30.16 in1021.3 mb - 0.00 in0.0 mm 0.00 in0.0 mm
01:15 AM 55.0°F12.8°C 49.0°F9.4°C 80% Calm Calm -- 30.16 in1021.3 mb - 0.00 in0.0 mm 0.00 in0.0 mm
01:10 AM 55.0°F12.8°C 49.0°F9.4°C 80% 1.2 mph ESE1.9 kmh ESE -- 30.16 in1021.3 mb - 0.00 in0.0 mm 0.00 in0.0 mm
01:05 AM 55.2°F12.9°C 49.1°F9.5°C 80% Calm Calm 1.2 mph1.9 kmh 30.16 in1021.3 mb - 0.00 in0.0 mm 0.00 in0.0 mm
01:00 AM 55.2°F12.9°C 49.2°F9.6°C 80% 1.2 mph ESE1.9 kmh ESE -- 30.16 in1021.3 mb - 0.00 in0.0 mm 0.00 in0.0 mm
12:55 AM 55.2°F12.9°C 49.2°F9.6°C 80% 1.2 mph ESE1.9 kmh ESE 1.2 mph1.9 kmh 30.16 in1021.3 mb - 0.00 in0.0 mm 0.00 in0.0 mm
12:50 AM 55.2°F12.9°C 48.8°F9.3°C 79% 1.2 mph ESE1.9 kmh ESE -- 30.16 in1021.3 mb - 0.00 in0.0 mm 0.00 in0.0 mm
12:45 AM 55.6°F13.1°C 49.2°F9.6°C 79% 1.2 mph ESE1.9 kmh ESE 2.3 mph3.7 kmh 30.16 in1021.3 mb - 0.00 in0.0 mm 0.00 in0.0 mm
12:40 AM 55.6°F13.1°C 49.2°F9.6°C 79% 1.2 mph ESE1.9 kmh ESE 2.3 mph3.7 kmh 30.16 in1021.3 mb - 0.00 in0.0 mm 0.00 in0.0 mm
12:35 AM 55.6°F13.1°C 49.2°F9.6°C 79% 1.2 mph ESE1.9 kmh ESE 2.3 mph3.7 kmh 30.16 in1021.3 mb - 0.00 in0.0 mm 0.00 in0.0 mm
12:30 AM 55.6°F13.1°C 49.2°F9.6°C 79% 1.2 mph ESE1.9 kmh ESE 2.3 mph3.7 kmh 30.16 in1021.3 mb - 0.00 in0.0 mm 0.00 in0.0 mm
12:25 AM 55.6°F13.1°C 49.2°F9.6°C 79% 1.2 mph ESE1.9 kmh ESE -- 30.16 in1021.3 mb - 0.00 in0.0 mm 0.00 in0.0 mm
12:20 AM 55.6°F13.1°C 48.8°F9.3°C 78% 1.2 mph ESE1.9 kmh ESE 3.5 mph5.6 kmh 30.15 in1021.0 mb - 0.00 in0.0 mm 0.00 in0.0 mm
12:15 AM 55.6°F13.1°C 48.8°F9.3°C 78% 1.2 mph ESE1.9 kmh ESE 4.6 mph7.4 kmh 30.15 in1021.0 mb - 0.00 in0.0 mm 0.00 in0.0 mm
12:10 AM 55.6°F13.1°C 48.8°F9.3°C 78% 1.2 mph ESE1.9 kmh ESE 1.2 mph1.9 kmh 30.15 in1021.0 mb - 0.00 in0.0 mm 0.00 in0.0 mm
12:05 AM 55.8°F13.2°C 48.7°F9.3°C 77% 1.2 mph ESE1.9 kmh ESE 4.6 mph7.4 kmh 30.15 in1021.0 mb - 0.00 in0.0 mm 0.00 in0.0 mm
12:00 AM 55.8°F13.2°C 48.7°F9.3°C 77% 2.3 mph ESE3.7 kmh ESE 3.5 mph5.6 kmh 30.15 in1021.0 mb - 0.00 in0.0 mm 0.00 in0.0 mm